Latest Weather Observations for Mornington Island Airport

IDQ60801

Issued at 11:32 pm EST Monday 25 May 2015 (issued every 30 minutes, with the page automatically refreshed every 10 minutes)

About weather observations | Map of weather stations | Latest weather observations for QLD | Other Formats
Station Details ID: 029182 Name: MORNINGTON ISLAND AIRPORT Lat: -16.66 Lon: 139.17 Height: 9.0 m
Data from the previous 72 hours. | See also: Recent months at Mornington Island Airport
Date/Time
EST
Temp
°C
App
Temp
°C
Dew
Point
Rel
Hum
%
Delta-T
°C
Wind Press
QNH
hPa
Press
MSL
hPa
Rain
since 9 am
mm
Dir
 
Spd
km/h
Gust
km/h
Spd
kts
Gust
kts
25/11:30pm 21.5 23.4 18.9 85 1.6 WSW 7 9 4 5 1018.6 1018.5 0.0
25/11:00pm 21.8 23.4 19.2 85 1.6 WSW 9 9 5 5 1018.7 1018.6 0.0
25/10:30pm 21.9 24.0 19.3 85 1.7 WSW 7 9 4 5 1018.7 1018.6 0.0
25/10:00pm 22.0 23.9 19.7 87 1.5 WSW 9 11 5 6 1018.6 1018.5 0.0
25/09:30pm 21.8 23.9 19.4 86 1.5 WSW 7 9 4 5 1018.5 1018.4 0.0
25/09:00pm 21.3 24.3 18.5 84 1.7 CALM 0 0 0 0 1018.3 1018.2 0.0
25/08:30pm 21.3 24.2 18.3 83 1.9 CALM 0 0 0 0 1018.2 1018.1 0.0
25/08:00pm 21.5 23.3 18.3 82 2.0 SE 6 6 3 3 1018.0 1017.9 0.0
25/07:30pm 21.7 23.6 18.5 82 2.0 SE 6 7 3 4 1017.6 1017.5 0.0
25/07:00pm 22.3 24.1 18.7 80 2.3 ESE 7 9 4 5 1017.4 1017.3 0.0
25/06:30pm 22.7 24.0 18.5 77 2.6 SSE 9 13 5 7 1017.3 1017.2 0.0
25/06:00pm 23.6 24.8 18.3 72 3.3 SSE 9 13 5 7 1017.1 1017.0 0.0
25/05:30pm 24.7 26.0 18.4 68 4.0 S 9 13 5 7 1016.7 1016.6 0.0
25/05:00pm 25.9 27.1 18.3 63 4.8 S 9 13 5 7 1016.5 1016.4 0.0
25/04:30pm 26.8 28.2 18.6 60 5.2 SW 9 11 5 6 1016.4 1016.3 0.0
25/04:00pm 26.3 27.0 17.9 60 5.3 SSE 11 15 6 8 1016.3 1016.2 0.0
25/03:30pm 27.6 28.2 19.4 61 5.3 NW 15 19 8 10 1016.3 1016.2 0.0
25/03:00pm 28.2 29.7 18.9 57 6.0 SW 9 17 5 9 1016.4 1016.3 0.0
25/02:30pm 28.7 27.9 17.2 49 7.2 SE 17 22 9 12 1016.3 1016.2 0.0
25/02:00pm 27.4 27.0 18.1 57 5.9 SSE 17 26 9 14 1016.8 1016.7 0.0
25/01:30pm 28.2 27.4 18.0 54 6.5 SE 19 28 10 15 1017.2 1017.1 0.0
25/01:00pm 28.6 27.7 18.1 53 6.7 ESE 20 28 11 15 1017.7 1017.6 0.0
25/12:30pm 29.2 28.2 18.0 51 7.1 ESE 20 30 11 16 1018.0 1017.9 0.0
25/12:00pm 28.6 27.3 18.1 53 6.7 ESE 22 32 12 17 1018.3 1018.2 0.0
25/11:30am 28.9 28.7 18.4 53 6.7 ESE 17 24 9 13 1018.5 1018.4 0.0
25/11:00am 29.4 29.4 19.7 56 6.3 ESE 19 24 10 13 1018.4 1018.3 0.0
25/10:30am 28.8 27.8 18.9 55 6.4 ENE 22 32 12 17 1018.7 1018.6 0.0
25/10:00am 27.6 26.3 19.1 59 5.5 E 24 30 13 16 1018.8 1018.7 0.0
25/09:30am 26.2 25.3 18.1 61 5.1 ESE 20 30 11 16 1018.9 1018.8 0.0
25/09:00am 24.7 24.2 17.7 65 4.4 SE 17 24 9 13 1018.7 1018.6 0.0
25/08:30am 23.6 22.8 17.1 67 4.0 SE 17 24 9 13 1018.3 1018.2 0.0
25/08:00am 22.7 22.0 16.3 67 3.9 SE 15 22 8 12 1018.1 1018.0 0.0
25/07:30am 21.3 20.0 14.9 67 3.8 SE 15 20 8 11 1017.8 1017.7 0.0
25/07:00am 21.1 19.1 14.0 64 4.1 SE 17 24 9 13 1017.5 1017.4 0.0
25/06:30am 21.3 19.2 13.5 61 4.5 SE 17 24 9 13 1017.4 1017.3 0.0
25/06:00am 20.5 19.8 15.3 72 3.1 SE 13 20 7 11 1017.2 1017.1 0.0
25/05:30am 20.5 20.0 15.9 75 2.7 SSE 13 20 7 11 1016.9 1016.8 0.0
25/05:00am 20.6 20.7 17.4 82 2.0 SSE 13 20 7 11 1017.0 1016.9 0.0
25/04:30am 20.5 20.7 17.7 84 1.7 SSE 13 19 7 10 1016.9 1016.8 0.0
25/04:00am 20.2 21.2 17.8 86 1.5 SE 9 15 5 8 1017.0 1016.9 0.0
25/03:30am 20.1 21.6 18.0 88 1.3 SE 7 11 4 6 1017.1 1017.0 0.0
25/03:00am 19.9 21.0 18.0 89 1.2 SE 9 11 5 6 1017.2 1017.1 0.0
25/02:30am 19.5 20.9 17.8 90 1.0 SE 7 11 4 6 1017.4 1017.3 0.0
25/02:00am 19.3 20.7 17.4 89 1.2 SE 6 7 3 4 1017.5 1017.4 0.0
25/01:30am 18.7 19.8 16.5 87 1.3 S 6 9 3 5 1017.6 1017.5 0.0
25/01:00am 19.4 20.8 17.4 88 1.2 SSW 6 7 3 4 1017.8 1017.7 0.0
25/12:30am 20.1 21.7 18.2 89 1.2 SSW 7 9 4 5 1017.9 1017.8 0.0
25/12:00am 20.2 21.8 18.3 89 1.2 SSW 7 9 4 5 1018.0 1017.9 0.0
 
Date/Time
EST
Temp
°C
App
Temp
°C
Dew
Point
Rel
Hum
%
Delta-T
°C
Wind Press
QNH
hPa
Press
MSL
hPa
Rain
since 9 am
mm
Dir
 
Spd
km/h
Gust
km/h
Spd
kts
Gust
kts
24/11:30pm 20.1 21.6 18.0 88 1.3 SW 7 9 4 5 1018.0 1017.9 0.0
24/11:00pm 20.0 21.7 18.1 89 1.2 SW 6 9 3 5 1017.9 1017.8 0.0
24/10:30pm 20.0 22.7 17.8 87 1.4 CALM 0 0 0 0 1017.8 1017.7 0.0
24/10:00pm 20.3 22.4 18.1 87 1.4 S 4 6 2 3 1017.8 1017.7 0.0
24/09:30pm 20.6 22.4 18.4 87 1.4 S 6 9 3 5 1018.1 1018.0 0.0
24/09:00pm 20.6 22.3 18.0 85 1.6 SSE 6 9 3 5 1017.9 1017.8 0.0
24/08:30pm 21.2 23.0 18.8 86 1.5 SE 7 9 4 5 1017.7 1017.6 0.0
24/08:00pm 21.6 23.5 19.0 85 1.6 SE 7 11 4 6 1017.3 1017.2 0.0
24/07:30pm 21.8 23.7 19.0 84 1.8 SE 7 9 4 5 1016.9 1016.8 0.0
24/07:00pm 22.3 24.1 19.5 84 1.8 SSE 9 13 5 7 1016.7 1016.6 0.0
24/06:30pm 22.6 24.2 19.2 81 2.2 SSE 9 13 5 7 1016.4 1016.3 0.0
24/06:00pm 23.1 24.4 18.4 75 3.0 SSE 9 15 5 8 1016.1 1016.0 0.0
24/05:30pm 24.1 25.1 17.8 68 3.9 SSE 9 15 5 8 1015.9 1015.8 0.0
24/05:00pm 24.6 25.4 17.3 64 4.5 SSE 9 15 5 8 1015.7 1015.6 0.0
24/04:30pm 25.4 25.7 17.1 60 5.2 SSE 11 15 6 8 1015.5 1015.4 0.0
24/04:00pm 26.1 26.9 17.2 58 5.5 SSE 9 17 5 9 1015.4 1015.3 0.0
24/03:30pm 25.9 25.8 15.9 54 6.1 SSE 11 19 6 10 1015.3 1015.2 0.0
24/03:00pm 26.2 25.8 15.3 51 6.6 SSE 11 17 6 9 1015.3 1015.2 0.0
24/02:30pm 26.1 25.7 15.2 51 6.6 SSE 11 17 6 9 1015.3 1015.2 0.0
24/02:00pm 26.1 25.1 14.6 49 6.9 SSE 13 22 7 12 1015.4 1015.3 0.0
24/01:30pm 26.2 25.1 15.3 51 6.6 SSE 15 24 8 13 1015.7 1015.6 0.0
24/01:00pm 26.5 25.6 14.9 49 7.0 SE 13 20 7 11 1016.1 1016.0 0.0
24/12:30pm 25.4 23.9 14.2 50 6.6 SE 15 22 8 12 1016.7 1016.6 0.0
24/12:00pm 25.8 23.2 13.3 46 7.3 SE 19 26 10 14 1017.0 1016.9 0.0
24/11:30am 25.0 22.1 12.9 47 7.0 SE 20 32 11 17 1017.2 1017.1 0.0
24/11:00am 24.1 20.3 12.4 48 6.7 SE 24 30 13 16 1017.4 1017.3 0.0
24/10:30am 23.8 19.8 11.8 47 6.8 SE 24 32 13 17 1017.4 1017.3 0.0
24/10:00am 22.8 19.4 11.2 48 6.4 SE 20 32 11 17 1017.5 1017.4 0.0
24/09:30am 22.4 19.5 10.9 48 6.4 SE 17 28 9 15 1017.8 1017.7 0.0
24/09:00am 21.6 18.0 10.4 49 6.1 SE 20 32 11 17 1017.7 1017.6 0.0
24/08:30am 21.5 18.0 10.3 49 6.1 SE 19 30 10 16 1017.1 1017.0 0.0
24/08:00am 20.9 17.4 10.1 50 5.8 SE 19 28 10 15 1016.8 1016.7 0.0
24/07:30am 20.2 17.0 10.0 52 5.5 SE 17 26 9 14 1016.5 1016.4 0.0
24/07:00am 19.8 16.6 10.0 53 5.2 SE 17 28 9 15 1016.3 1016.2 0.0
24/06:30am 19.8 16.2 9.7 52 5.4 SE 19 28 10 15 1016.2 1016.1 0.0
24/06:00am 19.7 16.9 9.9 53 5.2 SE 15 22 8 12 1016.0 1015.9 0.0
24/05:30am 19.9 16.5 9.2 50 5.7 SE 17 35 9 19 1015.8 1015.7 0.0
24/05:00am 19.9 16.2 7.9 46 6.2 SE 17 28 9 15 1015.8 1015.7 0.0
24/04:30am 20.3 16.5 7.7 44 6.5 SE 17 26 9 14 1015.9 1015.8 0.0
24/04:00am 20.4 16.6 7.7 44 6.5 SSE 17 28 9 15 1016.1 1016.0 0.0
24/03:30am 20.4 17.0 7.7 44 6.5 SSE 15 28 8 15 1016.1 1016.0 0.0
24/03:00am 20.8 16.5 7.1 41 7.0 SSE 19 28 10 15 1016.2 1016.1 0.0
24/02:30am 20.8 17.4 7.8 43 6.7 SSE 15 24 8 13 1016.5 1016.4 0.0
24/02:00am 20.7 17.5 8.4 45 6.4 SSE 15 24 8 13 1016.7 1016.6 0.0
24/01:30am 21.2 17.5 7.8 42 7.0 SSE 17 28 9 15 1016.8 1016.7 0.0
24/01:00am 20.9 17.9 9.2 47 6.2 SSE 15 22 8 12 1016.8 1016.7 0.0
24/12:30am 20.8 18.3 9.7 49 6.0 SSE 13 20 7 11 1017.0 1016.9 0.0
24/12:00am 21.0 18.2 9.9 49 6.0 SSE 15 24 8 13 1017.1 1017.0 0.0
 
Date/Time
EST
Temp
°C
App
Temp
°C
Dew
Point
Rel
Hum
%
Delta-T
°C
Wind Press
QNH
hPa
Press
MSL
hPa
Rain
since 9 am
mm
Dir
 
Spd
km/h
Gust
km/h
Spd
kts
Gust
kts
23/11:30pm 21.0 18.3 8.9 46 6.4 S 13 20 7 11 1017.3 1017.2 0.0
23/11:00pm 21.1 18.0 8.7 45 6.5 S 15 24 8 13 1017.3 1017.2 0.0
23/10:30pm 20.2 18.3 10.6 54 5.2 S 11 15 6 8 1017.4 1017.3 0.0
23/10:00pm 19.8 18.8 13.3 66 3.7 S 11 17 6 9 1017.5 1017.4 0.0
23/09:30pm 19.8 19.6 14.6 72 3.0 SSE 9 11 5 6 1017.6 1017.5 0.0
23/09:00pm 19.3 19.4 15.6 79 2.2 S 9 13 5 7 1017.5 1017.4 0.0
23/08:30pm 17.6 17.1 12.5 72 2.8 SE 7 7 4 4 1017.4 1017.3 0.0
23/08:00pm 18.3 17.8 12.7 70 3.1 SE 7 7 4 4 1017.2 1017.1 0.0
23/07:30pm 19.2 18.7 12.7 66 3.7 ESE 7 9 4 5 1016.8 1016.7 0.0
23/07:00pm 20.3 19.7 12.3 60 4.5 ESE 7 7 4 4 1016.6 1016.5 0.0
23/06:30pm 21.8 21.0 11.8 53 5.6 SE 7 13 4 7 1016.3 1016.2 0.0
23/06:00pm 23.1 21.2 9.1 41 7.5 SE 9 15 5 8 1016.0 1015.9 0.0
23/05:30pm 24.1 21.1 7.7 35 8.6 SE 13 20 7 11 1015.7 1015.6 0.0
23/05:00pm 24.4 21.1 8.0 35 8.7 SE 15 22 8 12 1015.4 1015.3 0.0
23/04:30pm 24.4 19.8 6.6 32 9.2 SE 20 30 11 16 1015.3 1015.2 0.0
23/04:00pm 24.3 19.7 6.6 32 9.1 SE 20 32 11 17 1015.4 1015.3 0.0
23/03:30pm 24.9 21.2 8.0 34 9.0 SSE 17 28 9 15 1015.6 1015.5 0.0
23/03:00pm 24.2 18.6 5.5 30 9.5 SSE 24 37 13 20 1015.9 1015.8 0.0
23/02:30pm 23.9 18.7 5.3 30 9.4 SSE 22 41 12 22 1016.0 1015.9 0.0
23/02:00pm 23.8 18.5 5.2 30 9.3 SSE 22 39 12 21 1016.3 1016.2 0.0
23/01:30pm 22.8 16.8 5.3 32 8.8 SSE 26 41 14 22 1016.7 1016.6 0.0
23/01:00pm 22.6 16.9 5.1 32 8.7 SSE 24 39 13 21 1017.4 1017.3 0.0
23/12:30pm 21.9 15.8 4.9 33 8.4 SSE 26 43 14 23 1017.8 1017.7 0.0
23/12:00pm 21.5 15.4 5.0 34 8.1 SSE 26 43 14 23 1018.2 1018.1 0.0
23/11:30am 21.0 15.9 6.2 38 7.4 SSE 22 46 12 25 1018.6 1018.5 0.0
23/11:00am 20.6 15.0 5.4 37 7.5 SSE 24 39 13 21 1019.0 1018.9 0.0
23/10:30am 20.2 14.2 5.4 38 7.3 SSE 26 41 14 22 1019.2 1019.1 0.0
23/10:00am 19.9 13.8 4.8 37 7.3 SSE 26 43 14 23 1019.6 1019.5 0.0
23/09:30am 19.6 14.0 5.3 39 7.0 SSE 24 44 13 24 1019.5 1019.4 0.0
23/09:00am 19.3 13.2 5.0 39 6.9 SSE 26 43 14 23 1019.3 1019.2 0.0
23/08:30am 19.3 13.2 4.6 38 7.1 SSE 26 44 14 24 1019.1 1019.0 0.0
23/08:00am 19.2 13.0 4.2 37 7.1 SSE 26 41 14 22 1019.1 1019.0 0.0
23/07:30am 19.0 13.2 4.4 38 7.0 SSE 24 39 13 21 1018.9 1018.8 0.0
23/07:14am 19.0 12.4 4.0 37 7.1 SSE 28 46 15 25 1018.7 1018.6 0.0
23/07:00am 18.9 12.7 4.3 38 6.9 SSE 26 43 14 23 1018.6 1018.5 0.0
23/06:30am 19.0 13.3 4.7 39 6.9 SSE 24 43 13 23 1018.1 1018.0 0.0
23/06:19am 19.1 12.4 3.7 36 7.3 SSE 28 48 15 26 1018.1 1018.0 0.0
23/06:00am 19.2 13.4 4.2 37 7.1 SSE 24 41 13 22 1018.0 1017.9 0.0
23/05:30am 19.6 12.5 3.3 34 7.7 SSE 30 48 16 26 1017.7 1017.6 0.0
23/05:00am 19.9 13.0 4.4 36 7.5 SSE 30 50 16 27 1017.6 1017.5 0.0
23/04:43am 20.0 13.3 3.7 34 7.7 SSE 28 48 15 26 1017.6 1017.5 0.0
23/04:30am 20.1 14.4 5.0 37 7.4 SSE 24 39 13 21 1017.6 1017.5 0.0
23/04:14am 20.3 13.6 3.5 33 8.0 SSE 28 48 15 26 1017.7 1017.6 0.0
23/04:00am 20.4 14.2 4.4 35 7.7 SSE 26 44 14 24 1017.6 1017.5 0.0
23/03:30am 20.7 14.5 4.3 34 7.9 SSE 26 48 14 26 1017.5 1017.4 0.0
23/03:00am 21.0 14.6 5.4 36 7.7 SSE 28 46 15 25 1017.7 1017.6 0.0
23/02:30am 21.0 15.3 5.0 35 7.9 SSE 24 39 13 21 1017.8 1017.7 0.0
23/02:14am 21.4 14.9 4.5 33 8.2 SE 28 48 15 26 1017.7 1017.6 0.0
23/02:00am 21.4 15.2 4.5 33 8.2 SSE 26 39 14 21 1017.8 1017.7 0.0
23/01:45am 21.7 15.0 3.4 30 8.8 SSE 28 46 15 25 1017.9 1017.8 0.0
23/01:30am 21.9 15.6 4.0 31 8.7 SSE 26 46 14 25 1018.1 1018.0 0.0
23/01:01am 22.2 15.6 4.3 31 8.7 SSE 28 52 15 28 1018.4 1018.3 0.0
23/01:00am 22.1 16.0 4.6 32 8.6 SSE 26 52 14 28 1018.4 1018.3 0.0
23/12:30am 22.3 16.3 5.3 33 8.5 SSE 26 41 14 22 1018.6 1018.5 0.0
23/12:00am 22.1 16.7 6.3 36 8.0 SSE 24 39 13 21 1018.9 1018.8 0.0

Other Formats:

Comma delimited format used in spreadsheet applications
http://www.bom.gov.au/fwo/IDQ60801/IDQ60801.94254.axf

JavaScript Object Notation format (JSON) in row-major order
http://www.bom.gov.au/fwo/IDQ60801/IDQ60801.94254.json